Time;durP1;ratioP1;P1;durP2;ratioP2;P2;SDS_P1;SDS_P2;PMS_P1;PMS_P2;Temp;Humidity;BMP_temperature;BMP_pressure;BME280_temperature;BME280_humidity;BME280_pressure;Samples;Min_cycle;Max_cycle;Signal;HPM_P1;HPM_P2
2023/01/01 00:00:07;;;;;;;14.17;6.13;;;15.30;74.40;;;;;;5042848;28;20463;-71
2023/01/01 00:02:36;;;;;;;11.27;5.93;;;15.30;74.40;;;;;;5045768;28;20479;-71
2023/01/01 00:05:05;;;;;;;8.13;5.03;;;15.30;74.40;;;;;;5044088;28;20518;-71
2023/01/01 00:07:33;;;;;;;11.60;5.90;;;15.30;74.40;;;;;;5050567;28;20451;-72
2023/01/01 00:12:48;;;;;;;10.83;6.13;;;15.30;74.30;;;;;;5045709;28;20520;-71
2023/01/01 00:15:16;;;;;;;11.33;6.20;;;15.20;74.30;;;;;;5045912;28;20467;-71
2023/01/01 00:17:44;;;;;;;11.57;6.87;;;15.30;74.30;;;;;;5046797;28;20502;-72
2023/01/01 00:20:13;;;;;;;10.47;6.73;;;15.30;74.20;;;;;;5043951;28;21059;-72
2023/01/01 00:22:41;;;;;;;14.77;8.03;;;15.30;74.20;;;;;;5045679;28;20475;-71
2023/01/01 00:25:24;;;;;;;11.37;6.73;;;15.30;74.20;;;;;;5044532;28;20446;-72
2023/01/01 00:27:54;;;;;;;12.73;7.70;;;15.30;74.20;;;;;;5050352;28;20473;-71
2023/01/01 00:30:23;;;;;;;12.07;7.73;;;15.30;74.20;;;;;;5042980;28;20471;-71
2023/01/01 00:32:51;;;;;;;14.10;8.07;;;15.20;74.30;;;;;;5060487;28;20570;-71
2023/01/01 00:35:23;;;;;;;12.37;7.40;;;15.30;74.20;;;;;;5045396;28;20457;-72
2023/01/01 00:37:52;;;;;;;13.07;8.70;;;15.30;74.10;;;;;;5045420;28;20487;-72
2023/01/01 00:40:20;;;;;;;12.63;7.47;;;15.20;74.20;;;;;;5046742;28;20447;-72
2023/01/01 00:42:48;;;;;;;16.10;8.43;;;15.20;74.20;;;;;;5044227;28;21037;-71
2023/01/01 00:45:18;;;;;;;13.30;8.30;;;15.20;74.10;;;;;;5045961;28;20938;-71
2023/01/01 00:47:49;;;;;;;14.50;9.00;;;15.20;74.10;;;;;;5042433;28;20466;-70
2023/01/01 00:50:17;;;;;;;18.17;12.00;;;15.20;74.10;;;;;;5045642;28;20481;-71
2023/01/01 00:52:45;;;;;;;16.83;9.87;;;15.20;74.10;;;;;;5044983;28;20481;-72
2023/01/01 00:55:13;;;;;;;18.80;9.33;;;15.20;74.10;;;;;;5045302;28;20517;-72
2023/01/01 00:57:41;;;;;;;14.17;9.73;;;15.20;74.10;;;;;;5043048;28;20478;-71
2023/01/01 01:00:11;;;;;;;13.47;7.90;;;15.20;74.10;;;;;;5044411;28;20937;-71
2023/01/01 01:02:40;;;;;;;12.10;7.20;;;15.10;74.10;;;;;;5043287;28;20486;-71
2023/01/01 01:05:09;;;;;;;11.63;7.57;;;15.10;74.10;;;;;;5045442;28;20459;-72
2023/01/01 01:07:38;;;;;;;16.10;8.10;;;15.10;74.20;;;;;;5044990;28;20450;-71
2023/01/01 01:10:08;;;;;;;14.70;8.03;;;15.10;74.30;;;;;;5044972;28;20447;-71
2023/01/01 01:12:36;;;;;;;13.27;8.00;;;15.10;74.20;;;;;;5051300;28;20481;-72
2023/01/01 01:15:06;;;;;;;11.40;7.80;;;15.00;74.20;;;;;;5041587;28;20463;-72
2023/01/01 01:17:33;;;;;;;13.63;8.53;;;15.00;74.20;;;;;;5045657;28;20498;-71
2023/01/01 01:20:04;;;;;;;13.60;9.67;;;15.00;74.40;;;;;;5044708;28;20455;-71
2023/01/01 01:22:33;;;;;;;14.37;8.30;;;15.00;74.40;;;;;;5044642;28;20518;-71
2023/01/01 01:25:01;;;;;;;17.30;9.03;;;15.00;74.40;;;;;;5045367;28;20455;-71
2023/01/01 01:27:29;;;;;;;13.17;9.10;;;15.00;74.40;;;;;;5048283;28;20501;-72
2023/01/01 01:29:57;;;;;;;18.30;11.00;;;15.00;74.40;;;;;;5041380;28;20470;-71
2023/01/01 01:32:25;;;;;;;17.60;10.80;;;15.10;74.40;;;;;;5044076;28;20605;-72
2023/01/01 01:34:53;;;;;;;19.00;11.57;;;15.00;74.30;;;;;;5061032;28;20463;-71
2023/01/01 01:37:22;;;;;;;15.13;11.53;;;15.00;74.30;;;;;;5048068;28;20499;-72
2023/01/01 01:39:50;;;;;;;19.50;12.30;;;15.00;74.40;;;;;;5045018;28;20451;-71
2023/01/01 01:42:21;;;;;;;18.40;12.07;;;15.00;74.30;;;;;;5044325;28;20482;-72
2023/01/01 01:44:55;;;;;;;17.47;12.70;;;15.00;74.20;;;;;;5043085;28;21110;-70
2023/01/01 01:47:36;;;;;;;22.10;13.63;;;15.00;74.30;;;;;;5044065;28;21094;-72
2023/01/01 01:50:11;;;;;;;23.83;13.83;;;15.00;74.30;;;;;;5044866;28;21063;-71
2023/01/01 01:52:44;;;;;;;20.97;14.30;;;15.00;74.40;;;;;;5041646;28;20875;-71
2023/01/01 01:55:13;;;;;;;27.97;17.50;;;15.00;74.40;;;;;;5043406;28;20449;-72
2023/01/01 01:57:41;;;;;;;28.40;17.93;;;15.00;74.30;;;;;;5042427;28;20528;-71
2023/01/01 02:00:10;;;;;;;25.13;17.90;;;15.00;74.30;;;;;;5044054;28;20862;-71
2023/01/01 02:02:46;;;;;;;53.90;28.57;;;15.00;74.30;;;;;;5043129;28;20569;-71
2023/01/01 02:05:14;;;;;;;32.23;20.67;;;15.00;74.20;;;;;;5046193;28;20457;-71
2023/01/01 02:07:43;;;;;;;32.90;19.20;;;15.00;74.20;;;;;;5045478;28;21257;-71
2023/01/01 02:10:11;;;;;;;36.80;22.43;;;15.00;74.20;;;;;;5042428;28;20455;-71
2023/01/01 02:12:39;;;;;;;27.67;18.93;;;14.90;74.20;;;;;;5045357;28;20481;-71
2023/01/01 02:15:09;;;;;;;27.30;18.30;;;14.90;74.20;;;;;;5043873;28;20450;-71
2023/01/01 02:17:44;;;;;;;28.50;19.70;;;14.90;74.20;;;;;;5043558;28;20483;-71
2023/01/01 02:20:34;;;;;;;25.00;18.50;;;14.90;74.20;;;;;;5042881;28;20461;-71
2023/01/01 02:23:38;;;;;;;27.63;18.20;;;14.80;74.30;;;;;;5045298;28;20491;-71
2023/01/01 02:26:38;;;;;;;29.53;20.07;;;14.80;74.30;;;;;;5043352;28;20458;-71
2023/01/01 02:29:16;;;;;;;36.87;23.40;;;14.80;74.30;;;;;;5020917;28;20493;-72
2023/01/01 02:31:49;;;;;;;45.63;29.07;;;14.80;74.30;;;;;;5041978;28;20511;-71
2023/01/01 02:34:21;;;;;;;35.50;22.80;;;14.80;74.30;;;;;;5044740;28;21241;-71
2023/01/01 02:36:53;;;;;;;34.43;23.83;;;14.80;74.20;;;;;;5044111;28;20462;-71
2023/01/01 02:39:25;;;;;;;30.97;22.50;;;14.70;74.20;;;;;;5043682;28;20511;-71
2023/01/01 02:41:56;;;;;;;36.50;24.40;;;14.70;74.20;;;;;;5042145;28;20451;-71
2023/01/01 02:44:28;;;;;;;34.47;23.80;;;14.60;74.20;;;;;;5042852;28;20487;-71
2023/01/01 02:46:55;;;;;;;33.60;22.07;;;14.60;74.30;;;;;;5040600;28;21026;-71
2023/01/01 02:49:26;;;;;;;34.70;23.30;;;14.60;74.30;;;;;;5041866;28;20451;-71
2023/01/01 02:52:02;;;;;;;41.30;26.87;;;14.50;74.30;;;;;;5042580;28;20501;-71
2023/01/01 02:54:37;;;;;;;32.30;22.03;;;14.50;74.30;;;;;;5044133;28;20957;-71
2023/01/01 02:57:10;;;;;;;32.87;22.03;;;14.40;74.30;;;;;;5040979;28;20479;-71
2023/01/01 03:02:47;;;;;;;33.87;23.87;;;14.40;74.60;;;;;;5047610;28;20474;-71
2023/01/01 03:05:25;;;;;;;37.63;23.60;;;14.40;74.60;;;;;;5040711;28;20474;-72
2023/01/01 03:08:04;;;;;;;36.17;25.03;;;14.40;74.70;;;;;;5043495;28;20449;-72
2023/01/01 03:10:40;;;;;;;35.13;26.07;;;14.40;74.80;;;;;;5042567;28;20512;-70
2023/01/01 03:13:15;;;;;;;36.13;25.17;;;14.40;74.80;;;;;;5044768;28;20486;-71
2023/01/01 03:15:51;;;;;;;38.60;25.57;;;14.40;74.80;;;;;;5045514;28;20459;-71
2023/01/01 03:18:24;;;;;;;40.00;27.60;;;14.40;74.70;;;;;;5040665;28;20496;-70
2023/01/01 03:20:55;;;;;;;46.13;30.00;;;14.40;74.80;;;;;;5045629;28;20532;-72
2023/01/01 03:23:29;;;;;;;43.67;29.30;;;14.30;74.80;;;;;;5042727;28;20535;-71
2023/01/01 03:26:03;;;;;;;39.93;29.10;;;14.40;74.90;;;;;;5044493;28;21004;-71
2023/01/01 03:28:35;;;;;;;40.30;29.30;;;14.30;74.90;;;;;;5043171;28;20498;-72
2023/01/01 03:31:05;;;;;;;45.50;29.50;;;14.30;74.90;;;;;;5043886;28;20470;-71
2023/01/01 03:33:37;;;;;;;43.73;30.50;;;14.30;74.90;;;;;;5045140;28;20482;-71
2023/01/01 03:36:09;;;;;;;40.50;30.00;;;14.30;74.90;;;;;;5039599;28;20455;-71
2023/01/01 03:38:42;;;;;;;49.40;31.53;;;14.30;74.90;;;;;;5042954;28;20483;-70
2023/01/01 03:41:14;;;;;;;45.43;29.90;;;14.30;74.90;;;;;;5044501;28;20466;-70
2023/01/01 03:43:48;;;;;;;41.43;30.10;;;14.30;75.00;;;;;;5044006;28;20880;-71
2023/01/01 03:46:23;;;;;;;47.17;31.80;;;14.30;75.00;;;;;;5044125;28;20458;-71
2023/01/01 03:48:59;;;;;;;45.17;29.90;;;14.30;74.90;;;;;;5040731;28;20446;-70
2023/01/01 03:51:50;;;;;;;46.10;31.07;;;14.30;75.00;;;;;;5043072;28;20500;-70
2023/01/01 03:54:36;;;;;;;49.47;32.37;;;14.30;75.00;;;;;;5043735;28;20474;-71
2023/01/01 03:57:10;;;;;;;50.30;34.20;;;14.30;75.10;;;;;;5043921;28;20548;-70
2023/01/01 03:59:43;;;;;;;52.40;34.93;;;14.30;75.00;;;;;;5043649;28;20898;-71
2023/01/01 04:02:18;;;;;;;46.73;32.40;;;14.30;75.00;;;;;;5042011;28;20525;-72
2023/01/01 04:04:47;;;;;;;51.33;35.80;;;14.30;75.00;;;;;;5060077;28;20961;-71
2023/01/01 04:07:15;;;;;;;50.13;32.90;;;14.30;75.00;;;;;;5045597;28;20455;-71
2023/01/01 04:09:49;;;;;;;53.60;34.70;;;14.30;75.10;;;;;;5044898;28;20513;-71
2023/01/01 04:12:19;;;;;;;49.47;34.70;;;14.20;75.10;;;;;;5043735;28;20465;-71
2023/01/01 04:14:46;;;;;;;51.37;35.90;;;14.20;75.20;;;;;;5041209;28;20494;-71
2023/01/01 04:17:16;;;;;;;53.03;34.57;;;14.20;75.10;;;;;;5045023;28;20592;-71
2023/01/01 04:19:44;;;;;;;50.73;33.00;;;14.20;75.20;;;;;;5043794;28;20491;-72
2023/01/01 04:22:22;;;;;;;48.53;34.53;;;14.20;75.20;;;;;;5043209;28;20490;-71
2023/01/01 04:24:50;;;;;;;45.10;30.70;;;14.20;75.20;;;;;;5048485;28;20470;-71
2023/01/01 04:27:18;;;;;;;48.10;32.43;;;14.30;75.10;;;;;;5043992;28;20938;-71
2023/01/01 04:29:45;;;;;;;50.83;32.83;;;14.30;75.10;;;;;;5044929;28;20512;-71
2023/01/01 04:32:13;;;;;;;40.20;30.30;;;14.20;75.10;;;;;;5042066;28;20948;-71
2023/01/01 04:34:43;;;;;;;45.03;31.60;;;14.20;75.20;;;;;;5043750;28;20539;-71
2023/01/01 04:37:11;;;;;;;43.70;28.63;;;14.20;75.10;;;;;;5044921;28;21272;-71
2023/01/01 04:39:40;;;;;;;51.67;32.33;;;14.20;75.10;;;;;;5047900;28;20470;-71
2023/01/01 04:42:08;;;;;;;42.93;28.57;;;14.20;75.10;;;;;;5042842;28;20577;-71
2023/01/01 04:44:36;;;;;;;42.77;29.80;;;14.20;75.10;;;;;;5043855;28;20463;-70
2023/01/01 04:47:04;;;;;;;37.73;27.70;;;14.20;75.20;;;;;;5044075;28;20463;-71
2023/01/01 04:49:32;;;;;;;41.93;27.47;;;14.20;75.10;;;;;;5042518;28;20470;-71
2023/01/01 04:52:01;;;;;;;39.83;26.00;;;14.20;75.10;;;;;;5043649;28;20553;-71
2023/01/01 04:54:29;;;;;;;36.50;25.03;;;14.20;75.20;;;;;;5045096;28;20463;-71
2023/01/01 04:56:57;;;;;;;37.43;23.93;;;14.20;75.10;;;;;;5042852;28;20563;-71
2023/01/01 04:59:25;;;;;;;34.60;25.30;;;14.20;75.10;;;;;;5038195;28;20892;-71
2023/01/01 05:01:53;;;;;;;37.93;24.80;;;14.20;75.20;;;;;;5043325;28;20465;-71
2023/01/01 05:04:21;;;;;;;37.17;26.70;;;14.20;75.10;;;;;;5041149;28;20475;-71
2023/01/01 05:06:49;;;;;;;41.00;25.80;;;14.20;75.10;;;;;;5043118;28;20467;-71
2023/01/01 05:09:19;;;;;;;37.97;25.07;;;14.20;75.10;;;;;;5044443;28;20447;-71
2023/01/01 05:11:47;;;;;;;37.93;26.67;;;14.20;75.10;;;;;;5042738;28;20455;-71
2023/01/01 05:14:15;;;;;;;40.10;26.17;;;14.10;75.10;;;;;;5043273;28;20486;-71
2023/01/01 05:16:43;;;;;;;37.70;25.13;;;14.10;75.00;;;;;;5043491;28;20800;-72
2023/01/01 05:19:11;;;;;;;37.00;24.23;;;14.10;75.10;;;;;;5043446;28;20502;-71
2023/01/01 05:21:40;;;;;;;34.50;24.07;;;14.10;75.00;;;;;;5041681;28;20887;-71
2023/01/01 05:24:09;;;;;;;35.17;23.50;;;14.10;75.10;;;;;;5043837;28;20483;-71
2023/01/01 05:26:43;;;;;;;35.33;23.20;;;14.10;75.10;;;;;;5042917;28;20447;-71
2023/01/01 05:29:11;;;;;;;41.17;25.87;;;14.10;75.10;;;;;;5045763;28;20469;-71
2023/01/01 05:31:44;;;;;;;36.37;23.10;;;14.10;75.10;;;;;;5040530;28;20466;-71
2023/01/01 05:34:12;;;;;;;31.50;21.50;;;14.10;75.00;;;;;;5042462;28;20470;-71
2023/01/01 05:36:40;;;;;;;29.37;19.30;;;14.10;75.00;;;;;;5042202;28;20538;-69
2023/01/01 05:39:10;;;;;;;34.50;21.53;;;14.10;75.00;;;;;;5042993;28;20512;-70
2023/01/01 05:41:40;;;;;;;32.80;20.60;;;14.10;75.00;;;;;;5040310;28;21035;-68
2023/01/01 05:44:09;;;;;;;34.63;20.60;;;14.10;75.00;;;;;;5038129;28;20568;-68
2023/01/01 05:46:37;;;;;;;35.83;24.30;;;14.10;75.00;;;;;;5041679;28;20459;-68
2023/01/01 05:49:06;;;;;;;36.53;24.50;;;14.10;74.90;;;;;;5042230;28;20459;-68
2023/01/01 05:51:33;;;;;;;37.53;26.30;;;14.10;74.80;;;;;;5041364;28;20447;-68
2023/01/01 05:54:00;;;;;;;35.77;24.43;;;14.10;74.80;;;;;;5042340;28;20482;-69
2023/01/01 05:56:28;;;;;;;38.97;23.47;;;14.00;74.80;;;;;;5041813;28;20475;-67
2023/01/01 05:58:58;;;;;;;34.53;23.80;;;14.00;74.90;;;;;;5039453;28;20462;-69
2023/01/01 06:01:28;;;;;;;36.20;23.10;;;14.00;75.00;;;;;;5041911;28;20465;-69
2023/01/01 06:03:59;;;;;;;31.10;21.77;;;13.90;74.80;;;;;;5038817;28;20487;-68
2023/01/01 06:06:28;;;;;;;33.50;20.97;;;13.90;74.80;;;;;;5041381;28;20546;-68
2023/01/01 06:08:58;;;;;;;31.00;21.07;;;13.90;74.80;;;;;;5041710;28;20458;-68
2023/01/01 06:11:27;;;;;;;28.33;19.10;;;13.90;75.00;;;;;;5041876;28;20470;-68
2023/01/01 06:13:58;;;;;;;33.83;21.37;;;13.80;75.00;;;;;;5040652;28;20478;-70
2023/01/01 06:16:28;;;;;;;28.73;18.80;;;13.80;75.00;;;;;;5041548;28;20452;-70
2023/01/01 06:18:56;;;;;;;26.87;18.30;;;13.80;74.80;;;;;;5040950;28;20459;-69
2023/01/01 06:21:26;;;;;;;26.60;18.40;;;13.80;74.80;;;;;;5041483;28;20460;-69
2023/01/01 06:23:56;;;;;;;26.93;17.60;;;13.80;75.00;;;;;;5042001;28;20482;-67
2023/01/01 06:26:26;;;;;;;24.00;18.50;;;13.80;74.80;;;;;;5042284;28;20829;-68
2023/01/01 06:28:55;;;;;;;25.37;16.50;;;13.80;75.00;;;;;;5041352;28;20910;-70
2023/01/01 06:31:25;;;;;;;25.17;16.87;;;13.80;75.10;;;;;;5040984;28;20462;-68
2023/01/01 06:33:53;;;;;;;23.13;16.17;;;13.80;75.10;;;;;;5041495;28;20550;-68
2023/01/01 06:36:24;;;;;;;24.40;16.10;;;13.80;75.10;;;;;;5041934;28;20528;-69
2023/01/01 06:38:55;;;;;;;27.73;17.60;;;13.80;75.00;;;;;;5040676;28;21057;-69
2023/01/01 06:41:25;;;;;;;26.30;16.27;;;13.80;75.10;;;;;;5042055;28;20513;-70
2023/01/01 06:43:55;;;;;;;26.23;16.20;;;13.80;75.00;;;;;;5044639;28;20480;-69
2023/01/01 06:46:26;;;;;;;22.93;16.00;;;13.80;75.00;;;;;;5045214;28;20463;-69
2023/01/01 06:48:56;;;;;;;24.27;16.60;;;13.80;75.00;;;;;;5045774;28;21046;-69
2023/01/01 06:51:26;;;;;;;22.80;15.53;;;13.80;74.80;;;;;;5044892;28;20443;-69
2023/01/01 06:53:54;;;;;;;25.60;15.70;;;13.80;74.80;;;;;;5043612;28;20513;-69
2023/01/01 06:56:23;;;;;;;26.00;16.53;;;13.80;74.80;;;;;;5044039;28;20625;-69
2023/01/01 06:58:51;;;;;;;19.63;13.37;;;13.80;74.80;;;;;;5044905;28;20886;-70
2023/01/01 07:01:20;;;;;;;20.07;12.90;;;13.70;74.70;;;;;;5043791;28;20539;-70
2023/01/01 07:03:53;;;;;;;25.00;14.40;;;13.70;74.70;;;;;;5044668;28;20474;-69
2023/01/01 07:06:21;;;;;;;20.30;13.33;;;13.70;74.70;;;;;;5044651;28;20454;-69
2023/01/01 07:08:50;;;;;;;19.90;13.00;;;13.70;74.70;;;;;;5044688;28;20463;-69
2023/01/01 07:11:19;;;;;;;23.57;14.60;;;13.70;74.70;;;;;;5045695;28;20443;-69
2023/01/01 07:13:47;;;;;;;22.30;14.37;;;13.70;74.70;;;;;;5044665;28;21032;-68
2023/01/01 07:16:15;;;;;;;19.90;12.70;;;13.60;74.70;;;;;;5041230;28;20467;-69
2023/01/01 07:18:43;;;;;;;21.60;12.30;;;13.60;74.70;;;;;;5044331;28;20494;-70
2023/01/01 07:21:27;;;;;;;18.63;11.83;;;13.60;74.60;;;;;;5045060;28;20482;-68
2023/01/01 07:23:57;;;;;;;20.20;11.70;;;13.60;74.60;;;;;;5044577;28;20967;-67
2023/01/01 07:26:26;;;;;;;18.30;11.83;;;13.60;74.70;;;;;;5041821;28;20510;-69
2023/01/01 07:28:54;;;;;;;18.00;11.57;;;13.50;74.70;;;;;;5043339;28;20462;-70
2023/01/01 07:31:31;;;;;;;17.47;11.07;;;13.50;74.70;;;;;;5042589;28;21305;-67
2023/01/01 07:33:59;;;;;;;20.50;11.27;;;13.50;74.70;;;;;;5045277;28;20505;-70
2023/01/01 07:36:29;;;;;;;14.33;9.83;;;13.50;74.70;;;;;;5045481;28;20470;-70
2023/01/01 07:38:57;;;;;;;17.93;10.93;;;13.50;74.70;;;;;;5045154;28;20454;-69
2023/01/01 07:41:25;;;;;;;15.63;10.50;;;13.60;74.70;;;;;;5044359;28;20532;-69
2023/01/01 07:43:53;;;;;;;17.87;9.97;;;13.60;74.70;;;;;;5043638;28;20482;-69
2023/01/01 07:46:20;;;;;;;18.70;9.67;;;13.50;74.60;;;;;;5043101;28;20467;-69
2023/01/01 07:48:49;;;;;;;15.27;9.40;;;13.50;74.60;;;;;;5042935;28;21035;-70
2023/01/01 07:51:16;;;;;;;15.37;9.50;;;13.60;74.60;;;;;;5044119;28;21019;-69
2023/01/01 07:53:46;;;;;;;13.93;7.93;;;13.50;74.60;;;;;;5043993;28;21065;-68
2023/01/01 07:56:14;;;;;;;13.70;8.17;;;13.50;74.60;;;;;;5044325;28;20454;-68
2023/01/01 07:58:41;;;;;;;12.27;7.70;;;13.50;74.60;;;;;;5040923;28;20462;-69
2023/01/01 08:01:11;;;;;;;19.23;8.70;;;13.60;74.60;;;;;;5042757;28;21037;-69
2023/01/01 08:03:40;;;;;;;15.37;8.00;;;13.50;74.60;;;;;;5043441;28;21076;-69
2023/01/01 08:06:10;;;;;;;12.27;7.17;;;13.60;74.60;;;;;;5041656;28;20470;-69
2023/01/01 08:08:38;;;;;;;21.70;13.20;;;13.60;74.60;;;;;;5040829;28;20467;-68
2023/01/01 08:11:08;;;;;;;15.40;9.27;;;13.60;74.60;;;;;;5042589;28;20467;-69
2023/01/01 08:13:35;;;;;;;17.47;8.13;;;13.60;74.60;;;;;;5042226;28;20475;-70
2023/01/01 08:16:06;;;;;;;10.93;7.10;;;13.60;74.60;;;;;;5041754;28;20455;-68
2023/01/01 08:18:34;;;;;;;13.43;6.97;;;13.60;74.50;;;;;;5042403;28;20464;-70
2023/01/01 08:21:02;;;;;;;12.70;7.10;;;13.70;74.50;;;;;;5042353;28;20482;-69
2023/01/01 08:23:30;;;;;;;13.60;7.60;;;13.70;74.40;;;;;;5060264;28;20567;-70
2023/01/01 08:26:00;;;;;;;12.70;6.13;;;13.70;74.40;;;;;;5042884;28;20465;-70
2023/01/01 08:28:30;;;;;;;13.70;6.63;;;13.70;74.50;;;;;;5040223;28;20479;-69
2023/01/01 08:30:59;;;;;;;10.40;6.30;;;13.70;74.40;;;;;;5039261;28;20491;-68
2023/01/01 08:33:29;;;;;;;10.60;5.60;;;13.70;74.40;;;;;;5042209;28;20483;-68
2023/01/01 08:35:57;;;;;;;10.20;5.50;;;13.70;74.40;;;;;;5044123;28;20512;-67
2023/01/01 08:38:26;;;;;;;14.40;6.27;;;13.70;74.40;;;;;;5045236;28;20445;-69
2023/01/01 08:40:54;;;;;;;13.63;6.50;;;13.70;74.40;;;;;;5042919;28;20486;-70
2023/01/01 08:43:22;;;;;;;14.60;5.80;;;13.80;74.30;;;;;;5042500;28;20962;-69
2023/01/01 08:45:51;;;;;;;10.40;5.70;;;13.80;74.20;;;;;;5042978;28;20600;-67
2023/01/01 08:48:19;;;;;;;11.27;5.83;;;13.80;74.20;;;;;;5044441;28;20458;-70
2023/01/01 08:50:53;;;;;;;11.30;5.80;;;13.80;74.20;;;;;;5043038;28;20571;-71
2023/01/01 08:53:21;;;;;;;12.60;6.17;;;13.90;74.20;;;;;;5043022;28;20478;-70
2023/01/01 08:55:56;;;;;;;14.77;5.80;;;13.90;74.20;;;;;;5043035;28;20456;-68
2023/01/01 08:58:24;;;;;;;12.50;6.10;;;13.90;74.20;;;;;;5043833;28;20504;-68
2023/01/01 09:00:53;;;;;;;13.50;5.60;;;13.90;74.20;;;;;;5041944;28;20492;-70
2023/01/01 09:03:22;;;;;;;9.87;5.40;;;13.90;74.20;;;;;;5042345;28;20541;-69
2023/01/01 09:05:50;;;;;;;11.63;5.60;;;14.00;74.10;;;;;;5042760;28;20465;-70
2023/01/01 09:08:18;;;;;;;8.97;4.90;;;14.00;74.10;;;;;;5043309;28;20450;-68
2023/01/01 09:10:46;;;;;;;11.37;5.17;;;14.00;74.10;;;;;;5042520;28;20512;-69
2023/01/01 09:13:16;;;;;;;12.00;5.30;;;14.00;74.10;;;;;;5039557;28;20600;-69
2023/01/01 09:15:44;;;;;;;10.30;4.83;;;14.10;74.10;;;;;;5036446;28;20466;-69
2023/01/01 09:18:14;;;;;;;8.93;5.13;;;14.10;74.10;;;;;;5043194;28;20507;-69
2023/01/01 09:20:42;;;;;;;15.87;5.83;;;14.10;74.00;;;;;;5040954;28;21035;-70
2023/01/01 09:23:11;;;;;;;9.00;4.80;;;14.10;74.10;;;;;;5039981;28;20487;-68
2023/01/01 09:25:39;;;;;;;11.47;5.30;;;14.10;74.00;;;;;;5042436;28;20485;-69
2023/01/01 09:28:08;;;;;;;10.20;5.10;;;14.20;74.00;;;;;;5038925;28;21022;-68
2023/01/01 09:30:36;;;;;;;13.60;4.80;;;14.20;74.00;;;;;;5040340;28;20504;-69
2023/01/01 09:33:04;;;;;;;10.80;4.80;;;14.20;74.00;;;;;;5044666;28;20939;-69
2023/01/01 09:35:35;;;;;;;9.20;4.60;;;14.20;73.90;;;;;;5042972;28;21251;-69
2023/01/01 09:38:03;;;;;;;10.43;4.43;;;14.20;74.00;;;;;;5044019;28;20455;-69
2023/01/01 09:40:42;;;;;;;8.70;4.87;;;14.20;74.00;;;;;;5039921;28;20474;-69
2023/01/01 09:43:28;;;;;;;10.07;4.97;;;14.30;73.90;;;;;;5036426;28;20552;-68
2023/01/01 09:45:59;;;;;;;8.93;4.70;;;14.30;73.90;;;;;;5041186;28;20512;-68
2023/01/01 09:48:30;;;;;;;8.63;4.13;;;14.30;73.80;;;;;;5057015;28;21022;-68
2023/01/01 09:51:03;;;;;;;8.73;4.43;;;14.30;73.80;;;;;;5040954;28;20516;-68
2023/01/01 09:53:34;;;;;;;12.17;5.60;;;14.30;73.80;;;;;;5042444;28;20479;-68
2023/01/01 09:56:04;;;;;;;9.83;5.03;;;14.40;73.80;;;;;;5040246;28;20565;-69
2023/01/01 09:58:34;;;;;;;9.00;5.20;;;14.40;73.70;;;;;;5042458;28;20982;-69
2023/01/01 10:01:13;;;;;;;10.47;5.17;;;14.40;73.70;;;;;;5042177;28;20462;-69
2023/01/01 10:03:48;;;;;;;10.80;5.50;;;14.40;73.70;;;;;;5041445;28;20474;-69
2023/01/01 10:06:23;;;;;;;9.57;5.07;;;14.40;73.50;;;;;;5039978;28;20478;-68
2023/01/01 10:09:04;;;;;;;10.67;4.30;;;14.40;73.60;;;;;;5039314;28;20470;-69
2023/01/01 10:11:42;;;;;;;14.67;4.50;;;14.50;73.60;;;;;;5039780;28;20450;-70
2023/01/01 10:14:17;;;;;;;10.97;5.23;;;14.50;73.70;;;;;;5038033;28;20540;-68
2023/01/01 10:16:48;;;;;;;12.90;3.90;;;14.50;73.60;;;;;;5054223;28;20459;-69
2023/01/01 10:19:26;;;;;;;9.93;4.77;;;14.50;73.70;;;;;;5040954;28;20453;-67
2023/01/01 10:22:00;;;;;;;7.90;4.93;;;14.60;73.70;;;;;;5054406;28;20470;-70
2023/01/01 10:24:38;;;;;;;10.40;4.20;;;14.60;73.80;;;;;;5040334;28;20924;-69
2023/01/01 10:27:06;;;;;;;8.53;4.00;;;14.70;73.80;;;;;;5039403;28;20482;-69
2023/01/01 10:29:41;;;;;;;8.53;3.90;;;14.70;73.80;;;;;;5038824;28;20462;-69
2023/01/01 10:32:19;;;;;;;8.70;3.80;;;14.80;73.80;;;;;;5037737;28;20462;-68
2023/01/01 10:34:48;;;;;;;8.80;3.90;;;14.80;73.80;;;;;;5038152;28;21132;-68
2023/01/01 10:37:17;;;;;;;9.80;4.23;;;14.90;73.80;;;;;;5040538;28;20524;-69
2023/01/01 10:39:47;;;;;;;9.30;4.50;;;14.90;73.80;;;;;;5040526;28;20470;-69
2023/01/01 10:42:16;;;;;;;12.13;4.10;;;14.90;73.80;;;;;;5040223;28;20478;-67
2023/01/01 10:44:44;;;;;;;8.90;4.10;;;14.90;73.80;;;;;;5040942;28;20976;-68
2023/01/01 10:47:33;;;;;;;11.47;3.43;;;15.00;73.70;;;;;;5040630;28;20447;-68
2023/01/01 10:50:06;;;;;;;13.50;3.60;;;15.00;73.60;;;;;;5035291;28;20479;-68
2023/01/01 10:52:39;;;;;;;11.37;4.20;;;15.10;73.40;;;;;;5039897;28;20466;-67
2023/01/01 10:55:20;;;;;;;7.60;2.93;;;15.10;73.30;;;;;;5036882;28;20496;-69
2023/01/01 10:57:48;;;;;;;6.40;2.50;;;15.10;73.30;;;;;;5035361;28;20918;-69
2023/01/01 11:00:24;;;;;;;7.50;2.70;;;15.10;73.30;;;;;;5039851;28;20521;-68
2023/01/01 11:03:16;;;;;;;10.67;3.30;;;15.20;73.30;;;;;;5037031;28;20604;-68
2023/01/01 11:06:21;;;;;;;10.77;3.50;;;15.20;73.30;;;;;;5038819;28;20516;-71
2023/01/01 11:08:53;;;;;;;10.23;3.77;;;15.20;73.20;;;;;;5034962;28;20466;-69
2023/01/01 11:11:26;;;;;;;8.80;3.30;;;15.30;73.10;;;;;;5039469;28;20517;-68
2023/01/01 11:13:57;;;;;;;9.13;4.10;;;15.30;73.00;;;;;;5036690;28;21046;-68
2023/01/01 11:16:26;;;;;;;8.57;3.73;;;15.30;73.10;;;;;;5040994;28;20991;-68
2023/01/01 11:19:02;;;;;;;6.90;3.90;;;15.30;73.00;;;;;;5038713;28;21581;-68
2023/01/01 11:21:30;;;;;;;12.63;4.80;;;15.40;73.10;;;;;;5037984;28;20475;-69
2023/01/01 11:24:18;;;;;;;10.77;5.23;;;15.30;73.10;;;;;;5038249;28;20483;-69
2023/01/01 11:26:46;;;;;;;12.47;4.23;;;15.30;73.10;;;;;;5038864;28;20466;-69
2023/01/01 11:29:26;;;;;;;7.40;3.50;;;15.30;73.20;;;;;;5040314;28;20989;-69
2023/01/01 11:31:55;;;;;;;8.13;3.47;;;15.40;73.10;;;;;;5041962;28;20462;-68
2023/01/01 11:34:33;;;;;;;8.70;3.43;;;15.40;73.10;;;;;;5043312;28;20532;-68
2023/01/01 11:37:17;;;;;;;9.33;3.40;;;15.40;73.00;;;;;;5034949;28;20466;-68
2023/01/01 11:39:49;;;;;;;11.37;3.73;;;15.40;73.00;;;;;;5036437;28;20999;-69
2023/01/01 11:42:19;;;;;;;10.10;4.20;;;15.40;73.00;;;;;;5039327;28;20551;-69
2023/01/01 11:44:52;;;;;;;8.87;3.40;;;15.40;73.00;;;;;;5058775;28;20498;-68
2023/01/01 11:47:26;;;;;;;12.83;3.80;;;15.50;73.00;;;;;;5044212;28;20462;-69
2023/01/01 11:49:56;;;;;;;8.83;3.87;;;15.50;73.00;;;;;;5044131;28;20496;-70
2023/01/01 11:52:34;;;;;;;10.47;3.23;;;15.50;73.00;;;;;;5040940;28;20463;-69
2023/01/01 11:55:15;;;;;;;12.13;4.43;;;15.50;73.00;;;;;;5042388;28;21003;-69
2023/01/01 11:57:51;;;;;;;9.90;3.47;;;15.50;73.00;;;;;;5043123;28;20520;-68
2023/01/01 12:00:19;;;;;;;13.00;3.73;;;15.50;73.00;;;;;;5041975;28;20466;-68
2023/01/01 12:02:54;;;;;;;12.00;4.70;;;15.60;73.00;;;;;;5043923;28;21005;-70
2023/01/01 12:05:25;;;;;;;12.20;4.00;;;15.60;73.00;;;;;;5040765;28;20450;-69
2023/01/01 12:07:58;;;;;;;8.53;3.40;;;15.60;72.90;;;;;;5057706;28;20458;-68
2023/01/01 12:10:33;;;;;;;8.57;3.80;;;15.60;72.90;;;;;;5043727;28;20461;-69
2023/01/01 12:13:06;;;;;;;9.97;3.70;;;15.60;72.90;;;;;;5041599;28;21415;-69
2023/01/01 12:15:38;;;;;;;11.13;3.67;;;15.70;72.80;;;;;;5042940;28;20443;-69
2023/01/01 12:18:14;;;;;;;11.80;3.53;;;15.60;72.70;;;;;;5042083;28;20459;-69
2023/01/01 12:20:48;;;;;;;8.00;3.53;;;15.70;72.70;;;;;;5039730;28;20455;-68
2023/01/01 12:23:18;;;;;;;8.10;3.20;;;15.60;72.70;;;;;;5044254;28;20490;-69
2023/01/01 12:25:57;;;;;;;7.80;3.33;;;15.60;72.70;;;;;;5044076;28;20459;-68
2023/01/01 12:28:35;;;;;;;9.60;3.70;;;15.70;72.70;;;;;;5042401;28;20466;-70
2023/01/01 12:31:13;;;;;;;8.27;3.63;;;15.60;72.60;;;;;;5042369;28;20446;-69
2023/01/01 12:34:01;;;;;;;11.00;2.90;;;15.60;72.50;;;;;;5041909;28;20510;-69
2023/01/01 12:36:38;;;;;;;9.60;3.50;;;15.60;72.50;;;;;;5043677;28;20964;-69
2023/01/01 12:39:55;;;;;;;10.97;4.07;;;15.60;72.60;;;;;;5040542;28;20455;-69
2023/01/01 12:42:32;;;;;;;7.97;3.50;;;15.60;72.60;;;;;;5041328;28;20469;-69
2023/01/01 12:45:18;;;;;;;11.00;3.23;;;15.60;72.70;;;;;;5044421;28;20537;-71
2023/01/01 12:47:55;;;;;;;11.13;3.20;;;15.60;72.70;;;;;;5041207;28;20463;-70
2023/01/01 12:50:36;;;;;;;10.13;3.80;;;15.60;72.70;;;;;;5042756;28;20462;-67
2023/01/01 12:53:17;;;;;;;11.23;3.63;;;15.60;72.60;;;;;;5041475;28;20482;-69
2023/01/01 12:56:08;;;;;;;7.87;3.53;;;15.60;72.70;;;;;;5043168;28;20465;-68
2023/01/01 12:58:42;;;;;;;12.20;3.77;;;15.60;72.50;;;;;;5044709;28;20455;-68
2023/01/01 13:01:13;;;;;;;13.20;3.70;;;15.60;72.60;;;;;;5040135;28;20467;-68